createdAt,value
2023-04-26T00:00:51.888Z,0.50
2023-04-26T00:03:19.202Z,0.30
2023-04-26T00:05:46.281Z,0.10
2023-04-26T00:08:13.332Z,0.30
2023-04-26T00:10:40.917Z,0.50
2023-04-26T00:13:08.449Z,0.70
2023-04-26T00:15:35.639Z,0.50
2023-04-26T00:18:02.626Z,0.40
2023-04-26T00:20:30.160Z,1.10
2023-04-26T00:22:57.563Z,0.90
2023-04-26T00:25:24.505Z,0.50
2023-04-26T00:27:52.414Z,0.60
2023-04-26T00:30:19.513Z,0.20
2023-04-26T00:32:47.314Z,0.80
2023-04-26T00:35:14.247Z,0.30
2023-04-26T00:37:41.668Z,0.90
2023-04-26T00:40:09.374Z,0.60
2023-04-26T00:42:36.279Z,0.30
2023-04-26T00:45:04.118Z,0.60
2023-04-26T00:47:31.417Z,0.30
2023-04-26T00:49:58.417Z,0.60
2023-04-26T00:52:30.075Z,0.60
2023-04-26T00:54:57.273Z,0.30
2023-04-26T00:57:24.281Z,0.50
2023-04-26T00:59:51.557Z,0.60
2023-04-26T01:02:19.028Z,1.70
2023-04-26T01:04:46.464Z,0.30
2023-04-26T01:07:13.383Z,1.00
2023-04-26T01:09:40.337Z,0.20
2023-04-26T01:12:07.942Z,1.20
2023-04-26T01:14:36.904Z,1.00
2023-04-26T01:17:04.042Z,1.00
2023-04-26T01:19:31.008Z,1.30
2023-04-26T01:21:58.237Z,1.60
2023-04-26T01:24:25.180Z,0.60
2023-04-26T01:26:52.058Z,0.30
2023-04-26T01:29:21.480Z,1.20
2023-04-26T01:31:48.799Z,0.90
2023-04-26T01:34:15.925Z,1.60
2023-04-26T01:36:46.162Z,0.80
2023-04-26T01:39:13.683Z,0.30
2023-04-26T01:41:40.682Z,0.50
2023-04-26T01:44:07.967Z,1.70
2023-04-26T01:46:34.922Z,1.20
2023-04-26T01:49:02.054Z,2.20
2023-04-26T01:51:29.789Z,3.30
2023-04-26T01:53:56.714Z,1.30
2023-04-26T01:56:25.269Z,0.80
2023-04-26T01:58:55.582Z,1.80
2023-04-26T02:01:23.443Z,0.90
2023-04-26T02:03:50.636Z,1.40
2023-04-26T02:06:21.922Z,2.30
2023-04-26T02:08:49.679Z,1.50
2023-04-26T02:11:16.771Z,1.40
2023-04-26T02:13:43.673Z,1.20
2023-04-26T02:16:10.920Z,2.30
2023-04-26T02:21:22.208Z,1.50
2023-04-26T02:23:49.178Z,2.20
2023-04-26T02:26:16.281Z,0.60
2023-04-26T02:28:43.785Z,0.60
2023-04-26T02:31:11.447Z,0.70
2023-04-26T02:33:38.720Z,1.90
2023-04-26T02:36:06.361Z,1.90
2023-04-26T02:38:35.326Z,0.90
2023-04-26T02:41:03.831Z,1.50
2023-04-26T02:43:31.005Z,1.10
2023-04-26T02:46:01.467Z,0.60
2023-04-26T02:48:29.386Z,1.70
2023-04-26T02:50:57.470Z,2.70
2023-04-26T02:53:24.522Z,1.50
2023-04-26T02:55:51.524Z,1.10
2023-04-26T02:58:18.530Z,1.00
2023-04-26T03:00:47.812Z,1.30
2023-04-26T03:03:15.554Z,0.70
2023-04-26T03:05:42.890Z,0.50
2023-04-26T03:08:09.858Z,1.40
2023-04-26T03:10:36.896Z,1.00
2023-04-26T03:13:05.344Z,0.80
2023-04-26T03:15:32.396Z,1.00
2023-04-26T03:17:59.691Z,1.10
2023-04-26T03:20:27.309Z,0.70
2023-04-26T03:22:54.606Z,0.70
2023-04-26T03:25:21.806Z,0.90
2023-04-26T03:27:48.769Z,0.80
2023-04-26T03:30:16.080Z,0.70
2023-04-26T03:32:44.317Z,0.70
2023-04-26T03:35:13.670Z,1.70
2023-04-26T03:37:40.605Z,0.40
2023-04-26T03:40:10.026Z,1.00
2023-04-26T03:42:37.792Z,0.20
2023-04-26T03:45:05.574Z,1.50
2023-04-26T03:47:32.662Z,0.70
2023-04-26T03:49:59.718Z,1.20
2023-04-26T03:52:27.198Z,2.90
2023-04-26T03:54:54.589Z,3.80
2023-04-26T03:57:22.359Z,1.30
2023-04-26T03:59:50.472Z,1.30
2023-04-26T04:02:17.779Z,1.10
2023-04-26T04:04:45.017Z,0.80
2023-04-26T04:07:12.348Z,0.40
2023-04-26T04:09:39.437Z,0.80
2023-04-26T04:12:06.471Z,0.40
2023-04-26T04:14:33.579Z,0.60
2023-04-26T04:17:01.049Z,1.40
2023-04-26T04:19:29.052Z,1.10
2023-04-26T04:21:56.502Z,1.20
2023-04-26T04:24:24.498Z,2.80
2023-04-26T04:26:54.396Z,2.80
2023-04-26T04:29:24.823Z,0.90
2023-04-26T04:31:54.881Z,2.00
2023-04-26T04:34:21.874Z,0.70
2023-04-26T04:36:50.765Z,0.80
2023-04-26T04:39:18.586Z,1.00
2023-04-26T04:41:49.132Z,0.90
2023-04-26T04:44:18.500Z,2.10
2023-04-26T04:46:45.730Z,0.70
2023-04-26T04:49:12.984Z,0.80
2023-04-26T04:51:40.125Z,1.20
2023-04-26T04:54:18.085Z,1.30
2023-04-26T04:56:48.452Z,0.70
2023-04-26T04:59:16.258Z,1.90
2023-04-26T05:01:43.675Z,2.10
2023-04-26T05:04:14.195Z,1.50
2023-04-26T05:06:41.391Z,2.10
2023-04-26T05:09:12.251Z,1.90
2023-04-26T05:11:39.273Z,3.10
2023-04-26T05:14:07.914Z,1.50
2023-04-26T05:16:35.160Z,3.20
2023-04-26T05:19:03.615Z,0.90
2023-04-26T05:21:31.789Z,1.80
2023-04-26T05:23:58.748Z,1.50
2023-04-26T05:29:45.340Z,1.20
2023-04-26T05:32:27.198Z,0.60
2023-04-26T05:35:14.086Z,0.40
2023-04-26T05:37:46.099Z,1.50
2023-04-26T05:42:43.324Z,2.10
2023-04-26T05:45:10.847Z,0.70
2023-04-26T05:47:39.201Z,1.10
2023-04-26T05:50:08.403Z,2.60
2023-04-26T05:52:35.870Z,4.00
2023-04-26T05:55:04.394Z,1.30
2023-04-26T05:57:31.969Z,0.90
2023-04-26T05:59:58.913Z,0.70
2023-04-26T06:02:29.785Z,1.60
2023-04-26T06:04:57.508Z,1.50
2023-04-26T06:07:26.414Z,0.60
2023-04-26T06:09:53.518Z,0.90
2023-04-26T06:12:20.810Z,0.60
2023-04-26T06:14:47.982Z,1.10
2023-04-26T06:17:17.944Z,0.90
2023-04-26T06:19:45.310Z,0.40
2023-04-26T06:22:12.627Z,2.10
2023-04-26T06:24:40.060Z,0.20
2023-04-26T06:27:07.157Z,0.50
2023-04-26T06:29:40.474Z,0.70
2023-04-26T06:32:07.611Z,0.60
2023-04-26T06:34:34.839Z,1.00
2023-04-26T06:37:05.837Z,0.60
2023-04-26T06:39:33.053Z,1.40
2023-04-26T06:42:00.020Z,1.30
2023-04-26T06:44:46.616Z,1.00
2023-04-26T06:47:14.474Z,1.40
2023-04-26T06:49:41.423Z,0.70
2023-04-26T06:52:09.527Z,1.60
2023-04-26T06:54:46.010Z,1.10
2023-04-26T06:57:17.392Z,0.60
2023-04-26T06:59:45.421Z,0.60
2023-04-26T07:02:13.889Z,1.10
2023-04-26T07:04:43.098Z,1.40
2023-04-26T07:07:12.495Z,1.50
2023-04-26T07:09:40.295Z,1.00
2023-04-26T07:12:07.661Z,1.20
2023-04-26T07:14:37.256Z,0.70
2023-04-26T07:17:06.199Z,0.60
2023-04-26T07:19:33.284Z,1.80
2023-04-26T07:22:00.209Z,2.30
2023-04-26T07:24:27.155Z,1.20
2023-04-26T07:26:54.078Z,0.70
2023-04-26T07:29:21.394Z,1.10
2023-04-26T07:31:49.088Z,1.30
2023-04-26T07:34:16.126Z,1.00
2023-04-26T07:36:43.273Z,2.10
2023-04-26T07:39:10.999Z,3.50
2023-04-26T07:41:37.915Z,2.20
2023-04-26T07:44:05.115Z,2.20
2023-04-26T07:46:34.090Z,3.30
2023-04-26T07:49:01.412Z,1.20
2023-04-26T07:51:28.282Z,1.30
2023-04-26T07:53:58.344Z,0.70
2023-04-26T07:56:25.452Z,1.00
2023-04-26T07:58:52.453Z,1.80
2023-04-26T08:01:19.337Z,0.70
2023-04-26T08:03:47.836Z,1.40
2023-04-26T08:06:15.063Z,1.40
2023-04-26T08:08:45.930Z,4.10
2023-04-26T08:11:12.831Z,2.80
2023-04-26T08:13:39.743Z,3.20
2023-04-26T08:16:06.878Z,2.80
2023-04-26T08:18:33.837Z,3.00
2023-04-26T08:21:01.176Z,2.70
2023-04-26T08:23:28.641Z,2.40
2023-04-26T08:25:55.603Z,2.20
2023-04-26T08:28:22.731Z,2.80
2023-04-26T08:30:49.765Z,3.00
2023-04-26T08:33:17.986Z,1.50
2023-04-26T08:35:45.285Z,2.10
2023-04-26T08:38:12.402Z,1.60
2023-04-26T08:40:39.291Z,0.50
2023-04-26T08:43:06.425Z,0.80
2023-04-26T08:45:37.890Z,1.30
2023-04-26T08:48:07.312Z,1.80
2023-04-26T08:50:34.268Z,1.90
2023-04-26T08:53:01.316Z,1.90
2023-04-26T08:55:28.330Z,1.80
2023-04-26T08:57:55.256Z,2.20
2023-04-26T09:00:23.282Z,2.00
2023-04-26T09:02:52.188Z,4.90
2023-04-26T09:05:24.380Z,2.80
2023-04-26T09:07:53.147Z,2.10
2023-04-26T09:10:23.623Z,12.80
2023-04-26T09:12:53.766Z,4.10
2023-04-26T09:15:21.993Z,3.50
2023-04-26T09:17:49.989Z,5.70
2023-04-26T09:20:24.267Z,3.30
2023-04-26T09:22:55.354Z,7.00
2023-04-26T09:25:29.682Z,4.20
2023-04-26T09:27:56.854Z,5.30
2023-04-26T09:30:24.198Z,3.60
2023-04-26T09:32:58.408Z,6.30
2023-04-26T09:35:34.639Z,6.50
2023-04-26T09:38:14.833Z,6.60
2023-04-26T09:40:42.979Z,7.90
2023-04-26T09:43:14.594Z,5.30
2023-04-26T09:45:58.447Z,4.90
2023-04-26T09:48:39.572Z,6.90
2023-04-26T09:51:10.385Z,3.10
2023-04-26T09:53:41.795Z,7.20
2023-04-26T09:56:13.715Z,5.10
2023-04-26T09:58:59.004Z,4.30
2023-04-26T10:01:26.984Z,5.40
2023-04-26T10:03:54.577Z,4.80
2023-04-26T10:06:46.203Z,7.70
2023-04-26T10:09:32.548Z,4.70
2023-04-26T10:12:00.229Z,4.20
2023-04-26T10:14:31.294Z,9.20
2023-04-26T10:16:58.752Z,3.30
2023-04-26T10:19:26.425Z,4.40
2023-04-26T10:22:00.987Z,5.60
2023-04-26T10:24:28.201Z,5.00
2023-04-26T10:26:59.602Z,4.10
2023-04-26T10:29:28.344Z,5.20
2023-04-26T10:32:08.790Z,6.90
2023-04-26T10:34:39.603Z,4.60
2023-04-26T10:37:17.892Z,5.60
2023-04-26T10:39:46.000Z,5.60
2023-04-26T10:42:24.067Z,5.40
2023-04-26T10:44:56.062Z,6.30
2023-04-26T10:47:32.992Z,6.90
2023-04-26T10:50:07.672Z,7.20
2023-04-26T10:53:04.070Z,4.50
2023-04-26T10:55:42.135Z,6.50
2023-04-26T10:58:31.619Z,3.40
2023-04-26T11:01:31.399Z,6.70
2023-04-26T11:04:10.574Z,4.60
2023-04-26T11:06:58.255Z,4.60
2023-04-26T11:09:41.518Z,7.00
2023-04-26T11:12:13.520Z,5.80
2023-04-26T11:14:45.706Z,5.10
2023-04-26T11:17:13.366Z,5.40
2023-04-26T11:19:41.460Z,8.50
2023-04-26T11:22:08.435Z,5.80
2023-04-26T11:24:39.319Z,5.20
2023-04-26T11:27:10.435Z,5.70
2023-04-26T11:29:41.181Z,5.50
2023-04-26T11:32:10.958Z,4.30
2023-04-26T11:34:42.445Z,5.60
2023-04-26T11:37:12.990Z,5.50
2023-04-26T11:39:42.430Z,6.10
2023-04-26T11:42:13.096Z,5.90
2023-04-26T11:44:45.153Z,5.00
2023-04-26T11:47:13.225Z,5.10
2023-04-26T11:49:48.078Z,3.70
2023-04-26T11:52:20.486Z,4.30
2023-04-26T11:54:48.124Z,8.20
2023-04-26T11:57:18.153Z,6.00
2023-04-26T11:59:45.396Z,6.70
2023-04-26T12:02:15.850Z,10.00
2023-04-26T12:04:44.568Z,8.30
2023-04-26T12:07:11.960Z,11.40
2023-04-26T12:09:41.274Z,8.00
2023-04-26T12:12:08.401Z,12.70
2023-04-26T12:14:39.607Z,11.90
2023-04-26T12:17:07.975Z,13.00
2023-04-26T12:19:36.776Z,14.80
2023-04-26T12:22:04.960Z,17.30
2023-04-26T12:24:34.717Z,8.60
2023-04-26T12:27:03.035Z,10.60
2023-04-26T12:29:33.849Z,8.50
2023-04-26T12:32:01.730Z,11.70
2023-04-26T12:34:32.437Z,14.80
2023-04-26T12:36:59.507Z,13.40
2023-04-26T12:39:26.386Z,16.20
2023-04-26T12:41:53.453Z,72.30
2023-04-26T12:44:22.170Z,19.70
2023-04-26T14:14:19.344Z,11.00
2023-04-26T14:16:46.655Z,12.70
2023-04-26T14:19:15.607Z,7.90
2023-04-26T14:21:42.618Z,12.20
2023-04-26T14:24:09.577Z,9.50
2023-04-26T14:26:36.725Z,11.00
2023-04-26T14:29:05.183Z,10.20
2023-04-26T14:31:32.905Z,33.80
2023-04-26T14:33:59.769Z,11.50
2023-04-26T14:36:28.142Z,11.80
2023-04-26T14:38:55.166Z,7.60
2023-04-26T14:41:22.149Z,9.20
2023-04-26T14:43:49.101Z,10.60
2023-04-26T14:46:16.260Z,10.40
2023-04-26T14:48:46.882Z,8.10
2023-04-26T14:51:14.110Z,15.90
2023-04-26T14:53:41.109Z,9.00
2023-04-26T14:56:08.751Z,7.70
2023-04-26T14:58:36.121Z,9.80
2023-04-26T15:01:03.695Z,8.50
2023-04-26T15:03:30.706Z,13.40
2023-04-26T15:05:57.581Z,9.30
2023-04-26T15:08:24.463Z,8.60
2023-04-26T15:10:51.568Z,9.30
2023-04-26T15:13:18.892Z,8.00
2023-04-26T15:15:46.076Z,7.10
2023-04-26T15:18:13.309Z,7.30
2023-04-26T15:20:44.789Z,10.10
2023-04-26T15:23:19.085Z,6.10
2023-04-26T15:25:46.557Z,11.80
2023-04-26T15:28:13.818Z,9.00
2023-04-26T15:30:41.486Z,6.70
2023-04-26T15:33:09.646Z,10.30
2023-04-26T15:35:36.627Z,8.50
2023-04-26T15:38:03.545Z,8.80
2023-04-26T15:40:30.438Z,6.70
2023-04-26T15:42:57.357Z,6.00
2023-04-26T15:45:24.277Z,10.00
2023-04-26T15:47:51.183Z,7.40
2023-04-26T15:50:18.100Z,7.60
2023-04-26T15:52:46.234Z,6.40
2023-04-26T15:55:13.304Z,3.90
2023-04-26T15:57:41.623Z,5.60
2023-04-26T16:00:09.820Z,9.10
2023-04-26T16:02:37.361Z,6.00
2023-04-26T16:05:04.882Z,8.60
2023-04-26T16:07:32.016Z,7.00
2023-04-26T16:09:58.857Z,10.90
2023-04-26T16:12:25.865Z,10.90
2023-04-26T16:14:52.860Z,8.30
2023-04-26T16:17:19.901Z,5.30
2023-04-26T16:19:46.994Z,6.50
2023-04-26T16:22:13.850Z,7.50
2023-04-26T16:24:40.906Z,9.50
2023-04-26T16:27:07.877Z,7.60
2023-04-26T16:29:34.918Z,7.00
2023-04-26T16:32:02.223Z,4.40
2023-04-26T16:34:29.173Z,5.70
2023-04-26T16:36:56.148Z,9.60
2023-04-26T16:39:23.634Z,7.20
2023-04-26T16:41:51.058Z,9.80
2023-04-26T16:44:17.988Z,8.40
2023-04-26T16:46:47.188Z,8.20
2023-04-26T16:49:14.115Z,7.80
2023-04-26T16:51:43.586Z,7.80
2023-04-26T16:54:10.662Z,7.50
2023-04-26T16:56:37.607Z,6.30
2023-04-26T16:59:04.692Z,6.70
2023-04-26T17:01:32.056Z,6.10
2023-04-26T17:03:59.078Z,7.10
2023-04-26T17:06:26.234Z,4.40
2023-04-26T17:08:55.984Z,5.80
2023-04-26T17:11:22.999Z,7.90
2023-04-26T17:13:49.970Z,6.20
2023-04-26T17:16:16.980Z,5.40
2023-04-26T17:18:44.617Z,6.90
2023-04-26T17:21:11.564Z,6.50
2023-04-26T17:23:38.604Z,8.50
2023-04-26T17:26:05.614Z,4.30
2023-04-26T17:28:33.203Z,8.40
2023-04-26T17:31:00.290Z,7.70
2023-04-26T17:33:27.270Z,9.20
2023-04-26T17:35:54.214Z,8.40
2023-04-26T17:38:21.176Z,8.30
2023-04-26T17:40:56.772Z,9.30
2023-04-26T17:43:26.819Z,7.30
2023-04-26T17:45:53.733Z,7.90
2023-04-26T17:48:20.707Z,8.90
2023-04-26T17:50:47.587Z,10.50
2023-04-26T17:53:14.554Z,9.60
2023-04-26T17:55:41.405Z,10.50
2023-04-26T17:58:08.471Z,10.10
2023-04-26T18:00:35.522Z,8.20
2023-04-26T18:03:04.232Z,10.90
2023-04-26T18:05:31.988Z,10.00
2023-04-26T18:07:59.149Z,12.10
2023-04-26T18:10:26.175Z,14.90
2023-04-26T18:12:53.080Z,15.50
2023-04-26T18:15:20.085Z,10.00
2023-04-26T18:17:47.047Z,10.40
2023-04-26T18:20:14.220Z,7.50
2023-04-26T18:22:41.673Z,5.90
2023-04-26T18:25:09.037Z,12.50
2023-04-26T18:27:35.945Z,10.40
2023-04-26T18:30:02.828Z,12.10
2023-04-26T18:32:29.779Z,16.10
2023-04-26T18:34:56.784Z,11.40
2023-04-26T18:37:23.677Z,8.40
2023-04-26T18:39:50.570Z,7.40
2023-04-26T18:42:17.462Z,6.90
2023-04-26T18:44:44.255Z,9.60
2023-04-26T18:47:11.857Z,8.00
2023-04-26T18:49:38.917Z,9.30
2023-04-26T18:52:08.811Z,10.00
2023-04-26T18:54:38.426Z,11.40
2023-04-26T18:57:05.807Z,11.30
2023-04-26T18:59:32.715Z,11.70
2023-04-26T19:01:59.763Z,13.70
2023-04-26T19:04:27.228Z,15.30
2023-04-26T19:06:54.246Z,15.00
2023-04-26T19:09:21.845Z,12.90
2023-04-26T19:11:49.146Z,10.40
2023-04-26T19:14:16.009Z,10.10
2023-04-26T19:16:42.906Z,9.50
2023-04-26T19:19:11.463Z,9.60
2023-04-26T19:21:38.526Z,10.40
2023-04-26T19:24:06.048Z,10.70
2023-04-26T19:26:35.389Z,11.70
2023-04-26T19:29:03.581Z,13.80
2023-04-26T19:31:32.375Z,15.00
2023-04-26T19:33:59.399Z,12.70
2023-04-26T19:36:27.529Z,15.40
2023-04-26T19:38:54.435Z,12.10
2023-04-26T19:41:21.623Z,11.30
2023-04-26T19:43:48.475Z,12.70
2023-04-26T19:46:15.672Z,12.00
2023-04-26T19:48:42.893Z,11.60
2023-04-26T19:51:14.669Z,11.50
2023-04-26T19:53:41.732Z,10.50
2023-04-26T19:56:11.080Z,8.50
2023-04-26T19:58:38.873Z,7.80
2023-04-26T20:01:05.960Z,5.10
2023-04-26T20:03:39.288Z,7.50
2023-04-26T20:06:06.649Z,11.70
2023-04-26T20:08:33.587Z,10.00
2023-04-26T20:11:04.807Z,8.80
2023-04-26T20:13:32.498Z,11.50
2023-04-26T20:15:59.361Z,10.20
2023-04-26T20:18:26.252Z,10.00
2023-04-26T20:20:53.161Z,7.50
2023-04-26T20:23:20.076Z,8.80
2023-04-26T20:25:46.985Z,8.10
2023-04-26T20:28:13.896Z,7.80
2023-04-26T20:30:41.058Z,9.50
2023-04-26T20:33:08.389Z,9.00
2023-04-26T20:35:35.339Z,6.80
2023-04-26T20:38:02.257Z,8.20
2023-04-26T20:40:29.481Z,10.00
2023-04-26T20:42:56.444Z,8.50
2023-04-26T20:45:23.466Z,12.20
2023-04-26T20:47:50.534Z,7.40
2023-04-26T20:50:17.552Z,7.70
2023-04-26T20:52:47.612Z,5.20
2023-04-26T20:55:14.525Z,8.60
2023-04-26T20:57:41.932Z,10.10
2023-04-26T21:00:10.465Z,8.10
2023-04-26T21:02:38.056Z,6.90
2023-04-26T21:05:05.724Z,8.40
2023-04-26T21:07:33.002Z,5.70
2023-04-26T21:09:59.866Z,7.80
2023-04-26T21:12:26.749Z,7.60
2023-04-26T21:14:53.560Z,7.00
2023-04-26T21:17:20.553Z,5.90
2023-04-26T21:19:47.757Z,7.20
2023-04-26T21:22:14.718Z,6.60
2023-04-26T21:24:41.840Z,7.00
2023-04-26T21:27:08.839Z,8.90
2023-04-26T21:29:35.712Z,9.20
2023-04-26T21:32:02.921Z,6.80
2023-04-26T21:34:29.774Z,13.40
2023-04-26T21:36:56.662Z,7.80
2023-04-26T21:39:23.505Z,8.70
2023-04-26T21:41:50.427Z,7.70
2023-04-26T21:44:17.483Z,7.00
2023-04-26T21:46:44.389Z,8.80
2023-04-26T21:49:11.548Z,7.20
2023-04-26T21:51:38.619Z,13.60
2023-04-26T21:54:05.580Z,9.00
2023-04-26T21:56:32.422Z,7.20
2023-04-26T21:58:59.278Z,8.20
2023-04-26T22:01:26.199Z,6.90
2023-04-26T22:03:53.215Z,8.20
2023-04-26T22:06:21.447Z,12.00
2023-04-26T22:08:48.342Z,8.80
2023-04-26T22:11:15.196Z,5.70
2023-04-26T22:13:42.029Z,7.90
2023-04-26T22:16:08.919Z,10.00
2023-04-26T22:18:35.970Z,8.60
2023-04-26T22:21:03.549Z,6.70
2023-04-26T22:23:31.488Z,7.40
2023-04-26T22:26:00.540Z,6.70
2023-04-26T22:28:27.435Z,5.80
2023-04-26T22:30:54.521Z,5.00
2023-04-26T22:33:21.609Z,7.40
2023-04-26T22:35:48.446Z,8.20
2023-04-26T22:38:15.623Z,8.20
2023-04-26T22:40:42.540Z,12.60
2023-04-26T22:43:09.319Z,8.80
2023-04-26T22:45:37.156Z,6.40
2023-04-26T22:48:04.296Z,12.30
2023-04-26T22:50:31.416Z,11.50
2023-04-26T22:52:58.275Z,5.80
2023-04-26T22:55:25.285Z,6.70
2023-04-26T22:57:52.130Z,8.30
2023-04-26T23:00:20.110Z,5.60
2023-04-26T23:02:47.576Z,7.00
2023-04-26T23:05:14.510Z,5.90
2023-04-26T23:07:41.512Z,9.00
2023-04-26T23:10:09.010Z,7.80
2023-04-26T23:12:38.752Z,7.00
2023-04-26T23:15:06.333Z,8.70
2023-04-26T23:17:34.197Z,13.30
2023-04-26T23:20:01.207Z,8.10
2023-04-26T23:22:28.362Z,8.20
2023-04-26T23:24:55.525Z,7.30
2023-04-26T23:27:24.395Z,7.40
2023-04-26T23:29:51.787Z,8.20
2023-04-26T23:32:18.697Z,6.60
2023-04-26T23:34:45.512Z,8.50
2023-04-26T23:37:12.755Z,6.50
2023-04-26T23:39:39.647Z,6.20
2023-04-26T23:42:06.724Z,5.50
2023-04-26T23:44:33.674Z,5.70
2023-04-26T23:47:00.569Z,7.90
2023-04-26T23:49:27.604Z,8.60
2023-04-26T23:51:54.407Z,5.30
2023-04-26T23:54:21.249Z,6.90
2023-04-26T23:56:48.145Z,7.20
2023-04-26T23:59:16.568Z,8.70
